createdAt,value
2022-12-13T00:02:06.459Z,99597.66
2022-12-13T00:04:56.292Z,99598.56
2022-12-13T00:07:44.779Z,99598.69
2022-12-13T00:10:33.260Z,99596.94
2022-12-13T00:13:21.731Z,99601.44
2022-12-13T00:16:13.551Z,99595.41
2022-12-13T00:19:02.286Z,99591.69
2022-12-13T00:21:52.080Z,99595.16
2022-12-13T00:24:45.905Z,99594.44
2022-12-13T00:27:34.690Z,99593.34
2022-12-13T00:30:23.212Z,99587.66
2022-12-13T00:33:11.696Z,99592.91
2022-12-13T00:36:00.369Z,99589.94
2022-12-13T00:39:00.191Z,99566.06
2022-12-13T00:41:48.814Z,99571.66
2022-12-13T00:44:37.300Z,99582.19
2022-12-13T00:47:25.784Z,99586.47
2022-12-13T00:50:14.253Z,99581.50
2022-12-13T00:53:04.058Z,99574.34
2022-12-13T00:55:54.077Z,99564.59
2022-12-13T00:58:46.065Z,99555.03
2022-12-13T01:01:37.749Z,99559.34
2022-12-13T01:04:26.267Z,99564.59
2022-12-13T01:07:14.795Z,99548.09
2022-12-13T01:10:03.539Z,99562.47
2022-12-13T01:12:55.093Z,99563.81
2022-12-13T01:15:43.673Z,99561.06
2022-12-13T01:18:32.532Z,99534.47
2022-12-13T01:21:22.111Z,99476.88
2022-12-13T01:24:10.858Z,99565.03
2022-12-13T01:26:59.780Z,99555.63
2022-12-13T01:29:49.639Z,99564.06
2022-12-13T01:32:38.396Z,99571.28
2022-12-13T01:35:26.860Z,99539.47
2022-12-13T01:38:16.187Z,99566.06
2022-12-13T01:41:08.927Z,99543.84
2022-12-13T01:44:07.163Z,99541.22
2022-12-13T01:46:57.016Z,99561.91
2022-12-13T01:49:45.577Z,99521.19
2022-12-13T01:52:34.665Z,99542.91
2022-12-13T01:55:23.880Z,99557.88
2022-12-13T01:58:13.092Z,99554.44
2022-12-13T02:01:02.264Z,99553.81
2022-12-13T02:03:52.099Z,99550.16
2022-12-13T02:06:43.483Z,99543.00
2022-12-13T02:09:32.015Z,99541.59
2022-12-13T02:12:20.419Z,99542.44
2022-12-13T02:15:12.809Z,99538.72
2022-12-13T02:18:14.294Z,99536.09
2022-12-13T02:21:12.280Z,99532.53
2022-12-13T02:24:28.366Z,99509.84
2022-12-13T02:27:42.584Z,99535.63
2022-12-13T02:30:35.897Z,99525.03
2022-12-13T02:33:33.039Z,99545.16
2022-12-13T02:36:26.914Z,99535.38
2022-12-13T02:39:30.332Z,99542.31
2022-12-13T02:42:24.011Z,99538.00
2022-12-13T02:45:20.528Z,99530.81
2022-12-13T02:48:12.093Z,99532.22
2022-12-13T02:51:01.979Z,99535.56
2022-12-13T02:53:50.553Z,99543.00
2022-12-13T02:56:39.007Z,99532.22
2022-12-13T02:59:31.841Z,99528.63
2022-12-13T03:02:31.509Z,99513.53
2022-12-13T03:05:46.771Z,99519.31
2022-12-13T03:08:46.305Z,99511.03
2022-12-13T03:12:00.821Z,99496.13
2022-12-13T03:14:57.647Z,99487.97
2022-12-13T03:17:50.457Z,99508.41
2022-12-13T03:20:40.298Z,99498.44
2022-12-13T03:23:29.239Z,99497.09
2022-12-13T03:26:20.746Z,99496.84
2022-12-13T03:29:09.212Z,99506.03
2022-12-13T03:31:57.674Z,99491.63
2022-12-13T03:34:49.640Z,99501.06
2022-12-13T03:37:42.032Z,99494.50
2022-12-13T03:40:30.913Z,99497.25
2022-12-13T03:43:22.020Z,99482.88
2022-12-13T03:46:11.502Z,99482.56
2022-12-13T03:49:00.023Z,99485.53
2022-12-13T03:51:48.436Z,99482.81
2022-12-13T03:54:38.266Z,99486.88
2022-12-13T03:57:26.734Z,99466.91
2022-12-13T04:00:16.067Z,99471.53
2022-12-13T04:03:04.819Z,99491.56
2022-12-13T04:05:53.343Z,99495.88
2022-12-13T04:11:46.414Z,99492.66
2022-12-13T04:14:34.926Z,99504.88
2022-12-13T04:17:23.377Z,99490.53
2022-12-13T04:20:12.655Z,99490.16
2022-12-13T04:23:01.216Z,99490.84
2022-12-13T04:25:59.976Z,99491.22
2022-12-13T04:28:54.485Z,99496.94
2022-12-13T04:31:43.332Z,99480.53
2022-12-13T04:34:36.771Z,99477.94
2022-12-13T04:37:26.210Z,99466.06
2022-12-13T04:40:14.698Z,99287.03
2022-12-13T04:43:10.424Z,99487.06
2022-12-13T04:46:00.260Z,99491.56
2022-12-13T04:48:48.837Z,99492.78
2022-12-13T04:51:37.301Z,99492.59
2022-12-13T04:54:25.806Z,99487.38
2022-12-13T04:57:14.243Z,99484.56
2022-12-13T05:00:03.018Z,99491.44
2022-12-13T05:02:52.891Z,99487.44
2022-12-13T05:05:41.980Z,99494.84
2022-12-13T05:08:30.551Z,99491.38
2022-12-13T05:11:19.796Z,99475.59
2022-12-13T05:14:11.557Z,99482.59
2022-12-13T05:17:00.324Z,99487.38
2022-12-13T05:19:50.263Z,99493.88
2022-12-13T05:22:38.778Z,99487.25
2022-12-13T05:25:27.293Z,99451.59
2022-12-13T05:28:28.155Z,99478.09
2022-12-13T05:31:22.465Z,99487.25
2022-12-13T05:34:15.744Z,99489.97
2022-12-13T05:37:05.670Z,99482.97
2022-12-13T05:39:54.129Z,99486.16
2022-12-13T05:42:42.582Z,99479.78
2022-12-13T05:45:31.834Z,99427.03
2022-12-13T05:48:24.360Z,99482.13
2022-12-13T05:51:13.606Z,99485.81
2022-12-13T05:54:03.985Z,99488.78
2022-12-13T05:56:52.438Z,99482.94
2022-12-13T05:59:41.022Z,99482.50
2022-12-13T06:02:29.529Z,99456.84
2022-12-13T06:05:18.172Z,99473.25
2022-12-13T06:08:06.668Z,99475.97
2022-12-13T06:11:31.412Z,99479.53
2022-12-13T06:14:21.878Z,99469.22
2022-12-13T06:17:11.390Z,99466.72
2022-12-13T06:19:59.847Z,99450.66
2022-12-13T06:22:48.312Z,99455.41
2022-12-13T06:25:37.572Z,99472.41
2022-12-13T06:28:27.398Z,99463.63
2022-12-13T06:31:15.902Z,99465.63
2022-12-13T06:34:14.673Z,99474.44
2022-12-13T06:37:05.258Z,99445.56
2022-12-13T06:39:53.715Z,99475.59
2022-12-13T06:42:42.197Z,99473.97
2022-12-13T06:45:32.053Z,99468.38
2022-12-13T06:48:20.599Z,99441.41
2022-12-13T06:51:10.385Z,99471.09
2022-12-13T06:53:58.831Z,99484.63
2022-12-13T06:56:49.498Z,99494.03
2022-12-13T06:59:38.003Z,99491.03
2022-12-13T07:02:27.943Z,99492.50
2022-12-13T07:05:16.489Z,99499.34
2022-12-13T07:08:05.466Z,99488.09
2022-12-13T07:10:55.207Z,99463.97
2022-12-13T07:13:43.825Z,99501.00
2022-12-13T07:16:32.347Z,99508.16
2022-12-13T07:19:23.446Z,99502.69
2022-12-13T07:22:13.101Z,99501.63
2022-12-13T07:25:01.626Z,99503.84
2022-12-13T07:28:02.104Z,99508.63
2022-12-13T07:30:51.341Z,99518.59
2022-12-13T07:33:40.370Z,99518.16
2022-12-13T07:36:30.244Z,99518.03
2022-12-13T07:39:18.729Z,99519.31
2022-12-13T07:42:07.360Z,99519.19
2022-12-13T07:44:55.926Z,99525.16
2022-12-13T07:47:44.750Z,99522.78
2022-12-13T07:50:37.290Z,99526.94
2022-12-13T07:53:27.699Z,99527.28
2022-12-13T07:56:21.845Z,99529.78
2022-12-13T07:59:11.159Z,99530.88
2022-12-13T08:02:01.789Z,99485.47
2022-12-13T08:04:54.443Z,99536.94
2022-12-13T08:07:43.536Z,99530.13
2022-12-13T08:10:33.854Z,99530.38
2022-12-13T08:13:22.646Z,99526.94
2022-12-13T08:16:26.083Z,99539.38
2022-12-13T08:19:17.445Z,99542.81
2022-12-13T08:22:06.619Z,99534.59
2022-12-13T08:25:03.446Z,99526.84
2022-12-13T08:27:53.483Z,99523.75
2022-12-13T08:30:50.385Z,99539.16
2022-12-13T08:33:40.292Z,99539.53
2022-12-13T08:36:28.838Z,99517.75
2022-12-13T08:39:17.351Z,99518.94
2022-12-13T08:42:15.242Z,99282.25
2022-12-13T08:45:09.686Z,99510.94
2022-12-13T08:47:59.268Z,99523.38
2022-12-13T08:50:47.783Z,99377.50
2022-12-13T08:53:41.166Z,99524.22
2022-12-13T08:56:30.078Z,99534.00
2022-12-13T08:59:19.228Z,99468.31
2022-12-13T09:02:11.192Z,99529.34
2022-12-13T09:04:59.698Z,99528.41
2022-12-13T09:07:48.265Z,99537.44
2022-12-13T09:10:38.321Z,99522.59
2022-12-13T09:13:31.560Z,99527.97
2022-12-13T09:16:24.477Z,99534.56
2022-12-13T09:19:26.147Z,99522.47
2022-12-13T09:22:16.253Z,99537.00
2022-12-13T09:25:24.230Z,99535.41
2022-12-13T09:28:12.969Z,99509.09
2022-12-13T09:31:02.255Z,99496.06
2022-12-13T09:33:50.735Z,99537.94
2022-12-13T09:36:40.882Z,99539.25
2022-12-13T09:39:29.386Z,99502.72
2022-12-13T09:42:20.897Z,99522.97
2022-12-13T09:45:22.349Z,99514.34
2022-12-13T09:48:13.562Z,99532.38
2022-12-13T09:51:18.178Z,99518.00
2022-12-13T09:54:20.737Z,99499.72
2022-12-13T09:57:30.896Z,99529.91
2022-12-13T10:00:24.046Z,99527.84
2022-12-13T10:03:15.803Z,99478.38
2022-12-13T10:06:15.015Z,99528.41
2022-12-13T10:09:14.198Z,99521.34
2022-12-13T10:12:04.567Z,99523.31
2022-12-13T10:14:56.700Z,99519.28
2022-12-13T10:17:51.563Z,99481.03
2022-12-13T10:20:44.385Z,99452.44
2022-12-13T10:23:47.029Z,99497.38
2022-12-13T10:26:41.592Z,99486.72
2022-12-13T10:29:31.551Z,99480.53
2022-12-13T10:32:20.387Z,99480.09
2022-12-13T10:35:23.400Z,99473.19
2022-12-13T10:38:31.956Z,99471.94
2022-12-13T10:41:30.046Z,99469.03
2022-12-13T10:44:25.049Z,99464.31
2022-12-13T10:47:19.833Z,99470.28
2022-12-13T10:50:24.292Z,99477.63
2022-12-13T10:53:19.634Z,99466.00
2022-12-13T10:56:11.435Z,99458.41
2022-12-13T10:59:17.045Z,99415.97
2022-12-13T11:02:35.760Z,99476.22
2022-12-13T11:05:26.755Z,99478.00
2022-12-13T11:08:17.065Z,99474.28
2022-12-13T11:11:07.636Z,99323.56
2022-12-13T11:14:01.333Z,99430.88
2022-12-13T11:16:51.880Z,99426.56
2022-12-13T11:19:46.476Z,99464.88
2022-12-13T11:22:37.452Z,99433.22
2022-12-13T11:25:28.572Z,99440.00
2022-12-13T11:28:28.582Z,99456.41
2022-12-13T11:31:21.603Z,99454.50
2022-12-13T11:34:16.741Z,99465.53
2022-12-13T11:37:14.297Z,99461.22
2022-12-13T11:40:06.602Z,99451.56
2022-12-13T11:42:59.048Z,99446.66
2022-12-13T11:45:52.534Z,99447.22
2022-12-13T11:48:44.686Z,99442.22
2022-12-13T11:51:40.749Z,99436.00
2022-12-13T11:54:36.359Z,99439.22
2022-12-13T11:57:33.350Z,99433.59
2022-12-13T12:00:35.181Z,99425.81
2022-12-13T12:03:37.734Z,99425.53
2022-12-13T12:06:28.635Z,99395.47
2022-12-13T12:09:19.673Z,99427.03
2022-12-13T12:12:13.983Z,99362.38
2022-12-13T12:15:16.212Z,99415.03
2022-12-13T12:18:05.140Z,99372.03
2022-12-13T12:21:15.254Z,99404.09
2022-12-13T12:24:11.894Z,99383.19
2022-12-13T12:27:11.891Z,99410.81
2022-12-13T12:30:13.697Z,99416.66
2022-12-13T12:33:19.990Z,99378.38
2022-12-13T12:36:21.869Z,99420.06
2022-12-13T12:39:41.192Z,99421.88
2022-12-13T12:43:11.807Z,99411.94
2022-12-13T12:46:00.400Z,99394.72
2022-12-13T12:49:08.766Z,99403.25
2022-12-13T12:52:03.509Z,99349.47
2022-12-13T12:55:02.962Z,99343.56
2022-12-13T12:58:01.894Z,99379.84
2022-12-13T13:01:05.707Z,99400.75
2022-12-13T13:04:01.804Z,99402.78
2022-12-13T13:06:52.463Z,99381.28
2022-12-13T13:09:41.509Z,99388.41
2022-12-13T13:12:30.985Z,99368.13
2022-12-13T13:15:51.783Z,99373.53
2022-12-13T13:18:45.910Z,99367.28
2022-12-13T13:21:39.408Z,99376.34
2022-12-13T13:24:29.195Z,99381.28
2022-12-13T13:27:28.818Z,99391.88
2022-12-13T13:30:19.389Z,99373.09
2022-12-13T13:33:54.029Z,99392.56
2022-12-13T13:36:52.314Z,99384.69
2022-12-13T13:40:01.489Z,99378.72
2022-12-13T13:43:04.892Z,99393.47
2022-12-13T13:45:57.367Z,99378.81
2022-12-13T13:48:56.231Z,99349.16
2022-12-13T13:52:24.865Z,99371.81
2022-12-13T13:55:34.301Z,99385.94
2022-12-13T13:58:55.895Z,99391.19
2022-12-13T14:02:36.373Z,99393.03
2022-12-13T14:06:03.712Z,99395.41
2022-12-13T14:09:09.416Z,99384.44
2022-12-13T14:12:35.327Z,99385.09
2022-12-13T14:16:11.987Z,99338.59
2022-12-13T14:19:29.976Z,99367.75
2022-12-13T14:22:29.363Z,99387.47
2022-12-13T14:25:47.825Z,99379.59
2022-12-13T14:28:48.284Z,99359.28
2022-12-13T14:31:40.737Z,99360.50
2022-12-13T14:34:31.030Z,99367.94
2022-12-13T14:37:28.306Z,99356.13
2022-12-13T14:40:27.182Z,99362.13
2022-12-13T14:43:24.686Z,99366.66
2022-12-13T14:46:16.050Z,99367.59
2022-12-13T14:49:07.734Z,99362.63
2022-12-13T14:52:01.228Z,99356.84
2022-12-13T14:54:57.878Z,99326.75
2022-12-13T14:57:53.247Z,99352.94
2022-12-13T15:00:42.724Z,99313.75
2022-12-13T15:03:31.373Z,99347.75
2022-12-13T15:06:20.558Z,99337.75
2022-12-13T15:09:12.078Z,99325.03
2022-12-13T15:12:24.891Z,99330.16
2022-12-13T15:15:31.560Z,99317.31
2022-12-13T15:18:21.707Z,99314.59
2022-12-13T15:21:22.958Z,99316.94
2022-12-13T15:24:13.475Z,99306.59
2022-12-13T15:27:03.665Z,99292.38
2022-12-13T15:29:54.245Z,99291.56
2022-12-13T15:33:03.484Z,99306.44
2022-12-13T15:36:05.963Z,99305.31
2022-12-13T15:39:01.745Z,99287.38
2022-12-13T15:41:50.791Z,99303.53
2022-12-13T15:44:45.835Z,99304.94
2022-12-13T15:47:36.630Z,99251.56
2022-12-13T15:50:34.189Z,99284.63
2022-12-13T15:53:27.380Z,99290.09
2022-12-13T15:56:31.188Z,99287.00
2022-12-13T15:59:26.816Z,99291.66
2022-12-13T16:02:20.494Z,99292.19
2022-12-13T16:05:10.964Z,99283.91
2022-12-13T16:08:13.968Z,99286.41
2022-12-13T16:11:03.276Z,99274.09
2022-12-13T16:13:52.465Z,99279.41
2022-12-13T16:16:47.304Z,99277.03
2022-12-13T16:19:37.165Z,99271.63
2022-12-13T16:22:25.783Z,99271.50
2022-12-13T16:25:16.023Z,99282.41
2022-12-13T16:28:04.703Z,99270.31
2022-12-13T16:31:03.288Z,99273.41
2022-12-13T16:33:52.509Z,99188.19
2022-12-13T16:36:42.387Z,99266.94
2022-12-13T16:39:30.916Z,99271.41
2022-12-13T16:42:19.696Z,99266.78
2022-12-13T16:45:42.920Z,99261.06
2022-12-13T16:48:22.261Z,99257.09
2022-12-13T16:51:10.973Z,99268.06
2022-12-13T16:54:00.931Z,99268.69
2022-12-13T16:56:50.705Z,99259.06
2022-12-13T16:59:39.241Z,99231.59
2022-12-13T17:02:27.777Z,99264.31
2022-12-13T17:05:17.255Z,99255.38
2022-12-13T17:08:05.941Z,99239.28
2022-12-13T17:10:58.017Z,99252.78
2022-12-13T17:13:48.110Z,99258.56
2022-12-13T17:16:36.601Z,99253.53
2022-12-13T17:19:25.125Z,99243.88
2022-12-13T17:22:13.589Z,99253.63
2022-12-13T17:25:02.144Z,99205.44
2022-12-13T17:27:52.106Z,99241.13
2022-12-13T17:30:41.158Z,99249.41
2022-12-13T17:33:29.726Z,99247.09
2022-12-13T17:36:18.586Z,99218.50
2022-12-13T17:39:07.205Z,99235.44
2022-12-13T17:41:55.960Z,99235.16
2022-12-13T17:44:46.280Z,99237.31
2022-12-13T17:47:34.848Z,99228.84
2022-12-13T17:50:23.296Z,99223.03
2022-12-13T17:53:11.923Z,99228.66
2022-12-13T17:56:02.348Z,99127.31
2022-12-13T17:58:50.862Z,99235.97
2022-12-13T18:01:40.921Z,99236.31
2022-12-13T18:04:29.480Z,99225.94
2022-12-13T18:07:18.012Z,99213.94
2022-12-13T18:10:07.639Z,99203.28
2022-12-13T18:12:56.144Z,99216.28
2022-12-13T18:15:44.688Z,99216.19
2022-12-13T18:18:34.820Z,99205.97
2022-12-13T18:21:23.917Z,99226.06
2022-12-13T18:24:12.774Z,99217.25
2022-12-13T18:27:01.300Z,99195.50
2022-12-13T18:29:55.326Z,99196.19
2022-12-13T18:32:44.194Z,99196.94
2022-12-13T18:35:34.313Z,99185.72
2022-12-13T18:38:24.199Z,99181.31
2022-12-13T18:41:14.951Z,99180.28
2022-12-13T18:44:05.451Z,99179.34
2022-12-13T18:46:54.113Z,99177.13
2022-12-13T18:49:43.087Z,99171.09
2022-12-13T18:52:44.824Z,99168.69
2022-12-13T18:55:33.348Z,99144.31
2022-12-13T18:58:21.882Z,99154.53
2022-12-13T19:01:12.332Z,99135.38
2022-12-13T19:04:00.825Z,99133.94
2022-12-13T19:06:49.301Z,99136.91
2022-12-13T19:09:39.123Z,99134.19
2022-12-13T19:12:27.647Z,99085.56
2022-12-13T19:15:17.082Z,99144.63
2022-12-13T19:18:06.827Z,99136.91
2022-12-13T19:20:56.008Z,99137.69
2022-12-13T19:23:49.495Z,99135.50
2022-12-13T19:26:43.295Z,99142.16
2022-12-13T19:29:31.838Z,99145.72
2022-12-13T19:32:20.661Z,99139.31
2022-12-13T19:35:10.141Z,99143.22
2022-12-13T19:37:58.844Z,99136.25
2022-12-13T19:40:47.404Z,99139.69
2022-12-13T19:43:37.505Z,99149.84
2022-12-13T19:46:27.183Z,99097.47
2022-12-13T19:49:15.969Z,99120.75
2022-12-13T19:52:04.810Z,99105.06
2022-12-13T19:54:53.637Z,99119.88
2022-12-13T19:57:42.110Z,99133.91
2022-12-13T20:00:31.952Z,99130.25
2022-12-13T20:03:20.660Z,99124.09
2022-12-13T20:06:13.283Z,99090.97
2022-12-13T20:09:01.803Z,99100.63
2022-12-13T20:11:50.470Z,99099.44
2022-12-13T20:14:38.985Z,99073.16
2022-12-13T20:17:29.147Z,99084.09
2022-12-13T20:20:17.877Z,99052.44
2022-12-13T20:23:06.905Z,99085.25
2022-12-13T20:26:00.807Z,99084.41
2022-12-13T20:28:49.975Z,99095.22
2022-12-13T20:31:40.011Z,99100.72
2022-12-13T20:34:29.955Z,99091.59
2022-12-13T20:37:18.492Z,99090.81
2022-12-13T20:40:08.320Z,99082.22
2022-12-13T20:42:57.080Z,99065.50
2022-12-13T20:45:46.649Z,99123.69
2022-12-13T20:48:36.820Z,99073.75
2022-12-13T20:51:28.269Z,99070.44
2022-12-13T20:54:16.784Z,99070.66
2022-12-13T20:57:06.049Z,99066.38
2022-12-13T20:59:54.549Z,99083.69
2022-12-13T21:02:44.500Z,99073.47
2022-12-13T21:05:33.008Z,99073.63
2022-12-13T21:08:40.626Z,99065.63
2022-12-13T21:11:31.192Z,99066.06
2022-12-13T21:14:23.172Z,99064.09
2022-12-13T21:17:12.074Z,99051.41
2022-12-13T21:20:00.628Z,99056.22
2022-12-13T21:22:49.196Z,99050.50
2022-12-13T21:25:39.167Z,99040.44
2022-12-13T21:28:27.605Z,99036.31
2022-12-13T21:31:16.123Z,99023.34
2022-12-13T21:34:06.367Z,99021.69
2022-12-13T21:36:54.876Z,99026.03
2022-12-13T21:39:43.349Z,99015.91
2022-12-13T21:42:33.416Z,99015.97
2022-12-13T21:45:21.905Z,99011.03
2022-12-13T21:48:10.662Z,99022.25
2022-12-13T21:50:59.157Z,99019.06
2022-12-13T21:53:48.027Z,99003.06
2022-12-13T21:56:54.143Z,99005.53
2022-12-13T21:59:44.059Z,98986.16
2022-12-13T22:02:32.634Z,98976.16
2022-12-13T22:05:21.983Z,98967.59
2022-12-13T22:08:10.458Z,98971.59
2022-12-13T22:11:20.918Z,98959.72
2022-12-13T22:14:09.985Z,98962.56
2022-12-13T22:16:59.783Z,98962.41
2022-12-13T22:19:49.070Z,98954.81
2022-12-13T22:22:39.622Z,98937.41
2022-12-13T22:25:28.125Z,98949.91
2022-12-13T22:28:17.075Z,98914.78
2022-12-13T22:31:05.825Z,98925.38
2022-12-13T22:33:56.925Z,98940.69
2022-12-13T22:36:45.547Z,98941.00
2022-12-13T22:39:34.146Z,98914.22
2022-12-13T22:42:22.838Z,98941.41
2022-12-13T22:45:12.010Z,98933.19
2022-12-13T22:48:00.460Z,98931.66
2022-12-13T22:50:50.302Z,98941.69
2022-12-13T22:53:38.997Z,98920.03
2022-12-13T22:56:28.415Z,98922.88
2022-12-13T22:59:17.538Z,98898.38
2022-12-13T23:02:06.151Z,98915.38
2022-12-13T23:04:54.752Z,98915.88
2022-12-13T23:07:44.535Z,98901.06
2022-12-13T23:10:54.917Z,98888.88
2022-12-13T23:13:43.461Z,98890.69
2022-12-13T23:16:37.685Z,98898.78
2022-12-13T23:19:51.577Z,98883.38
2022-12-13T23:22:35.849Z,98892.16
2022-12-13T23:25:25.749Z,98900.38
2022-12-13T23:28:14.398Z,98883.59
2022-12-13T23:31:02.999Z,98814.28
2022-12-13T23:33:51.520Z,98895.84
2022-12-13T23:36:40.017Z,98903.75
2022-12-13T23:39:28.638Z,98894.53
2022-12-13T23:42:18.712Z,98894.06
2022-12-13T23:45:08.431Z,98899.47
2022-12-13T23:47:56.990Z,98886.81
2022-12-13T23:50:45.654Z,98893.59
2022-12-13T23:53:35.610Z,98887.31
2022-12-13T23:56:24.692Z,98875.28
2022-12-13T23:59:14.781Z,98868.09
